Time;durP1;ratioP1;P1;durP2;ratioP2;P2;SDS_P1;SDS_P2;PMS_P1;PMS_P2;Temp;Humidity;BMP_temperature;BMP_pressure;BME280_temperature;BME280_humidity;BME280_pressure;Samples;Min_cycle;Max_cycle;Signal;HPM_P1;HPM_P2
2022/01/29 00:02:16;;;;;;;5.50;1.60;;;;;;;2.04;64.02;101217.23;1755498;81;25762;-58
2022/01/29 00:04:42;;;;;;;2.55;1.45;;;;;;;2.07;63.56;101219.77;1795779;78;28308;-59
2022/01/29 00:07:09;;;;;;;5.55;1.47;;;;;;;2.10;63.40;101228.92;1794180;78;25793;-58
2022/01/29 00:09:36;;;;;;;2.17;1.77;;;;;;;2.14;62.97;101229.16;1786781;80;25923;-59
2022/01/29 00:12:05;;;;;;;3.05;1.40;;;;;;;2.17;62.64;101229.48;1791927;78;25751;-58
2022/01/29 00:14:31;;;;;;;2.65;1.47;;;;;;;2.19;62.50;101231.61;1818739;78;25715;-58
2022/01/29 00:16:58;;;;;;;2.90;1.60;;;;;;;2.22;62.60;101231.92;1819101;78;27529;-58
2022/01/29 00:19:25;;;;;;;3.67;2.12;;;;;;;2.27;62.06;101228.61;1806656;78;27341;-58
2022/01/29 00:21:52;;;;;;;5.42;1.40;;;;;;;2.29;61.93;101231.58;1786436;80;25903;-58
2022/01/29 00:24:19;;;;;;;2.92;1.30;;;;;;;2.27;61.71;101233.44;1792641;79;25814;-58
2022/01/29 00:26:45;;;;;;;3.65;1.62;;;;;;;2.30;61.38;101237.28;1789183;79;25892;-59
2022/01/29 00:29:22;;;;;;;2.90;1.62;;;;;;;2.32;61.12;101242.52;1766806;81;27470;-58
2022/01/29 00:31:48;;;;;;;4.15;1.80;;;;;;;2.33;61.16;101242.91;1766381;81;25799;-58
2022/01/29 00:34:15;;;;;;;1.27;1.07;;;;;;;2.33;60.98;101246.42;1768852;79;25675;-59
2022/01/29 00:36:42;;;;;;;3.10;1.50;;;;;;;2.33;60.91;101254.38;1791004;79;25807;-58
2022/01/29 00:39:08;;;;;;;2.90;1.87;;;;;;;2.34;60.74;101254.78;1784357;80;26416;-59
2022/01/29 00:41:35;;;;;;;2.22;1.40;;;;;;;2.34;61.03;101255.27;1778480;80;28168;-59
2022/01/29 00:44:02;;;;;;;3.00;1.72;;;;;;;2.32;60.75;101259.33;1771035;81;25828;-58
2022/01/29 00:46:29;;;;;;;1.72;1.17;;;;;;;2.33;60.94;101259.69;1754153;80;25707;-59
2022/01/29 00:48:56;;;;;;;2.30;1.40;;;;;;;2.31;60.99;101258.92;1753268;81;25855;-58
2022/01/29 00:51:23;;;;;;;1.92;1.32;;;;;;;2.30;61.06;101258.53;1753246;81;25680;-58
2022/01/29 00:53:50;;;;;;;3.30;1.50;;;;;;;2.28;61.08;101271.48;1753298;81;28304;-58
2022/01/29 00:56:16;;;;;;;3.17;1.95;;;;;;;2.26;61.19;101253.42;1769661;80;25739;-60
2022/01/29 00:58:44;;;;;;;1.65;1.52;;;;;;;2.24;61.38;101255.28;1770575;80;25750;-59
2022/01/29 01:01:11;;;;;;;4.40;1.75;;;;;;;2.22;61.54;101255.81;1770939;81;25781;-59
2022/01/29 01:03:38;;;;;;;3.77;1.75;;;;;;;2.20;61.54;101258.55;1771036;81;25784;-59
2022/01/29 01:06:05;;;;;;;2.58;1.47;;;;;;;2.19;61.62;101274.95;1770934;80;27472;-60
2022/01/29 01:08:32;;;;;;;2.60;1.40;;;;;;;2.17;61.71;101270.17;1770415;81;25990;-59
2022/01/29 01:10:58;;;;;;;1.82;1.40;;;;;;;2.15;61.70;101285.30;1776277;80;25671;-59
2022/01/29 01:13:26;;;;;;;2.37;1.80;;;;;;;2.16;61.75;101272.43;1786893;79;25802;-59
2022/01/29 01:15:53;;;;;;;4.12;1.45;;;;;;;2.19;61.80;101275.41;1777400;79;25771;-60
2022/01/29 01:18:19;;;;;;;3.80;1.90;;;;;;;2.17;61.71;101285.22;1771005;81;27459;-59
2022/01/29 01:20:46;;;;;;;2.33;1.60;;;;;;;2.20;61.75;101279.78;1770619;81;25794;-60
2022/01/29 01:23:14;;;;;;;2.15;1.52;;;;;;;2.21;61.68;101289.48;1771005;81;25761;-60
2022/01/29 01:25:42;;;;;;;2.72;2.20;;;;;;;2.22;61.49;101292.53;1775854;79;26953;-60
2022/01/29 01:28:09;;;;;;;3.30;1.75;;;;;;;2.25;61.29;101293.70;1770722;81;25707;-59
2022/01/29 01:30:36;;;;;;;3.17;2.08;;;;;;;2.29;61.23;101288.66;1770851;80;28374;-60
2022/01/29 01:33:05;;;;;;;3.62;1.72;;;;;;;2.33;61.09;101300.00;1770463;81;25649;-60
2022/01/29 01:35:48;;;;;;;2.00;1.57;;;;;;;2.37;61.37;101316.65;1765835;80;25685;-60
2022/01/29 01:38:15;;;;;;;3.90;1.72;;;;;;;2.37;61.87;101294.96;1808901;79;25842;-59
2022/01/29 01:40:41;;;;;;;2.30;1.65;;;;;;;2.34;62.33;101308.36;1810849;78;25705;-60
2022/01/29 01:43:07;;;;;;;2.05;1.72;;;;;;;2.30;62.74;101310.30;1811470;78;27479;-59
2022/01/29 01:45:34;;;;;;;2.22;1.50;;;;;;;2.31;62.96;101313.80;1805207;79;25914;-60
2022/01/29 01:48:04;;;;;;;3.20;1.55;;;;;;;2.27;63.44;101317.06;1801522;78;25781;-60
2022/01/29 01:50:30;;;;;;;2.72;1.55;;;;;;;2.24;63.79;101318.52;1803741;79;27091;-60
2022/01/29 01:53:03;;;;;;;3.02;1.80;;;;;;;2.21;64.40;101321.78;1811810;78;25737;-60
2022/01/29 01:55:30;;;;;;;3.22;1.70;;;;;;;2.15;64.51;101322.46;1803614;78;27390;-60
2022/01/29 01:57:59;;;;;;;3.17;1.70;;;;;;;2.10;64.97;101323.15;1785885;79;25773;-60
2022/01/29 02:00:27;;;;;;;2.02;1.50;;;;;;;2.08;65.35;101323.67;1779869;80;25757;-60
2022/01/29 02:02:54;;;;;;;3.17;1.77;;;;;;;2.06;65.35;101322.88;1779464;80;26393;-60
2022/01/29 02:05:21;;;;;;;3.33;1.70;;;;;;;2.03;66.14;101328.30;1785810;79;25884;-59
2022/01/29 02:07:49;;;;;;;2.75;1.70;;;;;;;2.01;66.18;101324.40;1794679;79;27468;-60
2022/01/29 02:10:18;;;;;;;4.08;1.57;;;;;;;1.98;66.43;101327.17;1794938;79;25737;-60
2022/01/29 02:12:59;;;;;;;2.95;1.72;;;;;;;1.97;66.46;101327.25;1794737;79;25720;-60
2022/01/29 02:15:27;;;;;;;2.70;1.60;;;;;;;1.93;66.83;101333.64;1793706;79;25773;-59
2022/01/29 02:17:54;;;;;;;3.45;1.70;;;;;;;1.91;66.91;101333.69;1761300;81;25809;-60
2022/01/29 02:20:28;;;;;;;2.95;1.77;;;;;;;1.86;67.29;101333.88;1789090;80;27463;-59
2022/01/29 02:22:56;;;;;;;3.77;1.98;;;;;;;1.83;67.26;101344.65;1816293;78;25791;-60
2022/01/29 02:25:45;;;;;;;2.85;1.87;;;;;;;1.82;67.34;101348.67;1795644;78;25719;-60
2022/01/29 02:28:16;;;;;;;4.95;1.37;;;;;;;1.82;67.35;101349.55;1788884;80;25800;-59
2022/01/29 02:30:48;;;;;;;4.08;1.92;;;;;;;1.82;67.36;101358.84;1788891;80;25708;-60
2022/01/29 02:33:18;;;;;;;2.65;1.70;;;;;;;1.79;67.48;101340.39;1820219;78;27453;-59
2022/01/29 02:35:47;;;;;;;2.70;2.00;;;;;;;1.81;67.36;101347.83;1824869;78;25737;-59
2022/01/29 02:38:20;;;;;;;3.02;1.75;;;;;;;1.79;67.44;101344.84;1788320;78;25477;-59
2022/01/29 02:40:54;;;;;;;4.00;2.12;;;;;;;1.78;67.43;101346.62;1761067;81;25784;-60
2022/01/29 02:43:31;;;;;;;3.05;2.10;;;;;;;1.77;67.35;101348.02;1770770;81;25699;-59
2022/01/29 02:46:20;;;;;;;3.12;1.77;;;;;;;1.75;67.28;101357.83;1764531;81;27549;-59
2022/01/29 02:48:35;;;;;;;1.92;1.62;;;;;;;1.71;67.41;101348.66;1754141;81;25703;-59
2022/01/29 02:51:01;;;;;;;1.67;1.57;;;;;;;1.71;67.50;101356.62;1744744;81;25811;-59
2022/01/29 02:53:29;;;;;;;4.05;2.20;;;;;;;1.72;67.37;101360.15;1767852;81;25755;-59
2022/01/29 02:55:56;;;;;;;3.80;2.00;;;;;;;1.72;67.23;101366.30;1767387;81;25767;-60
2022/01/29 02:58:23;;;;;;;3.50;1.87;;;;;;;1.71;67.12;101369.88;1767146;81;27623;-59
2022/01/29 03:00:50;;;;;;;4.35;2.20;;;;;;;1.72;67.08;101373.41;1767349;81;25838;-59
2022/01/29 03:03:17;;;;;;;2.98;1.70;;;;;;;1.74;66.77;101382.17;1767652;81;25795;-59
2022/01/29 03:05:44;;;;;;;2.10;1.40;;;;;;;1.76;66.71;101380.30;1767388;81;25793;-59
2022/01/29 03:08:11;;;;;;;3.47;1.50;;;;;;;1.79;66.56;101387.29;1767475;81;25754;-59
2022/01/29 03:10:39;;;;;;;2.83;1.50;;;;;;;1.80;66.66;101386.33;1767252;81;29648;-59
2022/01/29 03:13:06;;;;;;;2.50;1.70;;;;;;;1.84;66.58;101395.43;1767198;81;26427;-59
2022/01/29 03:15:33;;;;;;;2.22;1.72;;;;;;;1.83;66.68;101387.55;1770860;81;25719;-59
2022/01/29 03:18:00;;;;;;;3.87;1.65;;;;;;;1.81;66.88;101397.34;1770562;81;25842;-59
2022/01/29 03:20:26;;;;;;;3.47;1.95;;;;;;;1.79;67.00;101399.23;1768112;81;25726;-59
2022/01/29 03:22:53;;;;;;;3.55;1.80;;;;;;;1.78;66.99;101404.98;1767495;81;27487;-58
2022/01/29 03:25:20;;;;;;;1.82;1.32;;;;;;;1.76;66.82;101395.37;1743117;81;25819;-59
2022/01/29 03:27:47;;;;;;;2.33;1.90;;;;;;;1.77;66.76;101395.30;1736777;82;25790;-59
2022/01/29 03:30:14;;;;;;;2.22;1.37;;;;;;;1.78;66.59;101393.05;1756158;81;25813;-59
2022/01/29 03:32:41;;;;;;;4.20;1.82;;;;;;;1.79;66.51;101405.38;1767400;81;25477;-59
2022/01/29 03:35:10;;;;;;;3.50;1.67;;;;;;;1.79;66.17;101400.08;1767278;81;27496;-59
2022/01/29 03:37:39;;;;;;;3.95;1.70;;;;;;;1.78;66.01;101404.98;1767090;79;25445;-59
2022/01/29 03:40:08;;;;;;;4.12;1.57;;;;;;;1.79;65.80;101407.19;1767355;81;25693;-59
2022/01/29 03:42:43;;;;;;;3.27;1.50;;;;;;;1.82;65.56;101407.92;1767374;81;25822;-59
2022/01/29 03:45:08;;;;;;;2.65;1.35;;;;;;;1.82;65.29;101421.62;1766437;81;25708;-59
2022/01/29 03:47:35;;;;;;;2.42;1.62;;;;;;;1.82;65.05;101418.53;1767384;81;28048;-59
2022/01/29 03:50:05;;;;;;;3.10;1.55;;;;;;;1.85;65.10;101424.16;1768970;81;25807;-59
2022/01/29 03:52:32;;;;;;;4.83;1.77;;;;;;;1.86;65.01;101420.11;1770653;81;25802;-59
2022/01/29 03:54:59;;;;;;;6.40;1.62;;;;;;;1.85;64.64;101438.76;1770973;81;26454;-59
2022/01/29 03:57:25;;;;;;;3.45;1.62;;;;;;;1.86;64.52;101416.61;1770668;81;25514;-59
2022/01/29 03:59:52;;;;;;;3.65;1.75;;;;;;;1.88;64.35;101420.07;1769189;81;27496;-59
2022/01/29 04:02:19;;;;;;;2.35;1.47;;;;;;;1.91;64.04;101429.20;1767280;81;25657;-59
2022/01/29 04:04:46;;;;;;;5.45;2.08;;;;;;;1.92;63.72;101430.94;1767721;81;25811;-59
2022/01/29 04:07:14;;;;;;;3.87;1.70;;;;;;;1.95;63.70;101438.78;1767403;81;25855;-59
2022/01/29 04:09:47;;;;;;;4.72;1.60;;;;;;;1.98;63.43;101435.13;1767333;81;25690;-59
2022/01/29 04:12:10;;;;;;;6.70;1.67;;;;;;;1.97;63.41;101440.88;1766347;81;27908;-59
2022/01/29 04:14:39;;;;;;;3.70;2.17;;;;;;;1.96;63.35;101445.82;1767613;81;25672;-59
2022/01/29 04:17:07;;;;;;;5.08;2.00;;;;;;;1.98;63.48;101456.36;1767477;81;25707;-60
2022/01/29 04:19:35;;;;;;;2.70;1.70;;;;;;;1.96;63.44;101459.53;1770814;81;25941;-60
2022/01/29 04:22:04;;;;;;;5.28;1.60;;;;;;;1.93;63.56;101465.84;1770572;81;25730;-60
2022/01/29 04:24:32;;;;;;;6.55;1.72;;;;;;;1.93;63.52;101466.31;1755442;81;28150;-60
2022/01/29 04:27:03;;;;;;;3.85;1.75;;;;;;;1.95;63.59;101475.94;1736865;82;25725;-60
2022/01/29 04:29:39;;;;;;;3.22;1.70;;;;;;;1.94;63.54;101483.94;1768559;81;25743;-59
2022/01/29 04:32:09;;;;;;;4.42;2.08;;;;;;;1.93;63.62;101483.56;1769219;81;25892;-59
2022/01/29 04:34:27;;;;;;;7.17;1.80;;;;;;;1.90;63.63;101488.51;1768210;81;25849;-59
2022/01/29 04:36:53;;;;;;;5.03;1.87;;;;;;;1.91;63.68;101491.56;1770140;79;28172;-59
2022/01/29 04:39:20;;;;;;;3.17;1.40;;;;;;;1.91;63.67;101491.56;1761649;81;26590;-60
2022/01/29 04:41:47;;;;;;;4.28;2.05;;;;;;;1.87;63.57;101497.46;1766191;81;25705;-59
2022/01/29 04:44:15;;;;;;;3.47;1.72;;;;;;;1.90;63.25;101506.23;1766265;81;25817;-59
2022/01/29 04:46:41;;;;;;;2.70;1.90;;;;;;;1.88;63.49;101501.84;1766391;81;25720;-60
2022/01/29 04:49:08;;;;;;;3.33;1.62;;;;;;;1.91;63.51;101516.77;1766365;81;28337;-60
2022/01/29 04:51:35;;;;;;;3.80;1.92;;;;;;;1.91;63.56;101511.95;1766188;81;25740;-59
2022/01/29 04:54:03;;;;;;;3.08;1.72;;;;;;;1.90;63.30;101515.52;1766403;81;25423;-59
2022/01/29 04:56:29;;;;;;;6.47;2.17;;;;;;;1.91;63.33;101518.09;1766608;79;25787;-60
2022/01/29 04:58:56;;;;;;;3.52;2.50;;;;;;;1.88;63.20;101518.25;1766489;81;25762;-59
2022/01/29 05:01:23;;;;;;;2.80;1.70;;;;;;;1.88;63.30;101523.08;1766361;81;27486;-59
2022/01/29 05:03:50;;;;;;;3.05;2.08;;;;;;;1.90;63.27;101523.00;1766481;81;25810;-59
2022/01/29 05:06:16;;;;;;;4.90;2.17;;;;;;;1.90;63.32;101532.29;1766842;81;25744;-59
2022/01/29 05:08:43;;;;;;;3.17;1.80;;;;;;;1.92;63.39;101533.58;1766428;81;25784;-59
2022/01/29 05:11:13;;;;;;;3.00;1.72;;;;;;;1.93;63.29;101533.98;1766318;81;25768;-59
2022/01/29 05:13:41;;;;;;;5.00;2.77;;;;;;;1.91;63.15;101527.86;1737044;81;27431;-60
2022/01/29 05:27:11;;;;;;;7.42;1.77;;;;;;;1.86;63.27;101563.87;1766217;81;27563;-60
2022/01/29 05:29:38;;;;;;;3.80;1.92;;;;;;;1.86;63.35;101566.52;1766721;81;25854;-60
2022/01/29 05:32:08;;;;;;;4.50;1.62;;;;;;;1.85;63.35;101572.27;1766251;81;25779;-60
2022/01/29 05:34:36;;;;;;;3.83;2.08;;;;;;;1.81;63.28;101574.66;1767197;81;26471;-60
2022/01/29 05:37:04;;;;;;;5.35;2.30;;;;;;;1.79;63.38;101570.34;1769411;81;25704;-60
2022/01/29 05:39:31;;;;;;;2.95;2.00;;;;;;;1.80;63.41;101573.38;1770388;81;27470;-60
2022/01/29 05:41:59;;;;;;;3.50;2.25;;;;;;;1.76;62.87;101581.06;1789336;79;26062;-60
2022/01/29 05:44:27;;;;;;;3.62;1.98;;;;;;;1.78;63.11;101589.84;1802808;79;25767;-60
2022/01/29 05:46:54;;;;;;;5.10;2.67;;;;;;;1.79;62.57;101600.38;1802444;79;25867;-60
2022/01/29 05:49:21;;;;;;;4.60;2.50;;;;;;;1.79;62.48;101611.47;1802642;79;25807;-60
2022/01/29 05:51:48;;;;;;;5.45;2.80;;;;;;;1.79;62.40;101613.64;1802615;79;27483;-60
2022/01/29 05:54:16;;;;;;;8.20;2.80;;;;;;;1.79;62.05;101604.36;1802659;79;25648;-61
2022/01/29 05:56:42;;;;;;;5.40;2.55;;;;;;;1.79;61.98;101620.75;1802941;79;25480;-60
2022/01/29 05:59:09;;;;;;;5.30;2.70;;;;;;;1.81;61.77;101618.88;1801991;79;25874;-60
2022/01/29 06:01:36;;;;;;;7.17;2.72;;;;;;;1.82;61.72;101625.92;1802570;79;25793;-59
2022/01/29 06:04:06;;;;;;;36.17;10.35;;;;;;;1.83;61.55;101628.98;1802276;79;26088;-60
2022/01/29 06:06:33;;;;;;;19.57;7.53;;;;;;;1.84;61.77;101633.37;1802819;79;25699;-59
2022/01/29 06:09:04;;;;;;;3.40;2.17;;;;;;;1.84;61.22;101641.33;1802617;79;25789;-60
2022/01/29 06:11:29;;;;;;;4.55;2.35;;;;;;;1.86;60.95;101642.14;1802332;79;25813;-60
2022/01/29 06:14:00;;;;;;;3.98;2.12;;;;;;;1.88;60.93;101639.83;1802827;79;25728;-60
2022/01/29 06:16:30;;;;;;;5.65;1.90;;;;;;;1.91;60.87;101638.84;1802924;79;27442;-60
2022/01/29 06:18:57;;;;;;;4.95;2.83;;;;;;;1.92;60.93;101639.72;1802563;79;25664;-60
2022/01/29 06:21:24;;;;;;;2.72;1.80;;;;;;;1.89;60.65;101651.29;1793905;78;25567;-60
2022/01/29 06:23:50;;;;;;;8.60;2.80;;;;;;;1.92;61.03;101652.98;1775827;79;25859;-60
2022/01/29 06:26:17;;;;;;;13.80;2.85;;;;;;;1.94;61.04;101655.98;1802599;79;25713;-60
2022/01/29 06:28:44;;;;;;;5.55;2.30;;;;;;;1.95;60.89;101659.48;1802611;79;27650;-60
2022/01/29 06:31:11;;;;;;;4.65;2.12;;;;;;;1.92;60.96;101657.82;1773057;79;25502;-59
2022/01/29 06:33:39;;;;;;;4.78;2.50;;;;;;;1.92;61.17;101672.41;1770948;81;25782;-60
2022/01/29 06:36:07;;;;;;;4.08;2.72;;;;;;;1.92;61.36;101672.41;1770284;81;25870;-60
2022/01/29 06:38:34;;;;;;;6.85;2.95;;;;;;;1.90;61.47;101671.59;1766242;81;25727;-60
2022/01/29 06:41:02;;;;;;;4.92;3.20;;;;;;;1.88;61.67;101678.77;1768182;80;27552;-60
2022/01/29 06:43:29;;;;;;;4.30;2.77;;;;;;;1.91;61.74;101678.64;1778746;80;25863;-60
2022/01/29 06:45:56;;;;;;;6.85;3.45;;;;;;;1.92;61.54;101683.50;1761241;81;25730;-60
2022/01/29 06:48:23;;;;;;;4.40;2.52;;;;;;;1.91;61.31;101679.11;1761245;81;26481;-60
2022/01/29 06:50:50;;;;;;;5.47;3.02;;;;;;;1.90;60.98;101672.08;1760937;81;25716;-59
2022/01/29 06:53:16;;;;;;;7.65;2.83;;;;;;;1.91;60.82;101680.44;1738278;80;27520;-60
2022/01/29 06:55:43;;;;;;;5.42;2.60;;;;;;;1.92;60.56;101682.17;1779554;80;25908;-59
2022/01/29 06:58:10;;;;;;;7.90;3.60;;;;;;;1.93;60.21;101684.77;1793961;80;25658;-59
2022/01/29 07:00:37;;;;;;;5.15;2.77;;;;;;;1.94;60.28;101685.61;1793575;80;26465;-59
2022/01/29 07:03:04;;;;;;;7.67;2.90;;;;;;;1.94;60.07;101690.48;1793745;80;26378;-59
2022/01/29 07:05:31;;;;;;;5.80;3.22;;;;;;;1.97;60.09;101686.84;1792962;80;27473;-60
2022/01/29 07:07:57;;;;;;;9.65;2.65;;;;;;;1.98;59.60;101690.75;1793855;79;25805;-59
2022/01/29 07:10:25;;;;;;;7.83;3.50;;;;;;;2.00;59.29;101700.00;1793294;80;25729;-59
2022/01/29 07:12:52;;;;;;;5.33;2.90;;;;;;;2.00;59.34;101690.71;1793347;80;25805;-59
2022/01/29 07:15:21;;;;;;;8.20;3.02;;;;;;;2.02;58.90;101696.36;1793587;80;25977;-59
2022/01/29 07:17:48;;;;;;;5.97;2.67;;;;;;;2.04;58.65;101706.91;1781616;80;28224;-59
2022/01/29 07:20:15;;;;;;;6.40;2.70;;;;;;;2.03;58.04;101701.19;1760948;80;25763;-59
2022/01/29 07:22:42;;;;;;;4.95;2.95;;;;;;;2.06;58.35;101699.76;1761104;80;25664;-59
2022/01/29 07:25:09;;;;;;;7.40;3.05;;;;;;;2.12;57.88;101710.13;1761377;80;25781;-59
2022/01/29 07:27:36;;;;;;;6.67;3.35;;;;;;;2.12;57.92;101707.48;1776501;80;25896;-59
2022/01/29 07:30:05;;;;;;;5.20;2.98;;;;;;;2.12;57.92;101715.44;1761178;81;27477;-59
2022/01/29 07:32:32;;;;;;;11.88;4.83;;;;;;;2.13;58.14;101706.55;1761109;81;25908;-59
2022/01/29 07:34:59;;;;;;;18.57;6.35;;;;;;;2.17;58.43;101707.30;1761274;81;25529;-58
2022/01/29 07:37:25;;;;;;;15.30;6.53;;;;;;;2.17;58.75;101714.82;1790499;80;26564;-59
2022/01/29 07:39:52;;;;;;;6.78;3.52;;;;;;;2.23;59.03;101706.20;1791088;80;25711;-59
2022/01/29 07:42:19;;;;;;;10.30;3.90;;;;;;;2.30;59.05;101718.31;1785747;80;27494;-59
2022/01/29 07:44:46;;;;;;;8.75;4.33;;;;;;;2.32;59.11;101723.11;1758694;80;25778;-59
2022/01/29 07:47:13;;;;;;;4.30;3.00;;;;;;;2.35;59.16;101720.34;1791530;80;25778;-59
2022/01/29 07:49:39;;;;;;;6.65;3.25;;;;;;;2.32;59.01;101718.69;1787046;80;25863;-59
2022/01/29 07:52:07;;;;;;;7.95;3.22;;;;;;;2.31;59.34;101714.30;1778717;80;25499;-59
2022/01/29 07:54:33;;;;;;;6.12;3.00;;;;;;;2.32;59.51;101722.66;1782172;80;27445;-60
2022/01/29 07:57:00;;;;;;;8.33;2.83;;;;;;;2.35;59.53;101721.20;1787708;80;25871;-60
2022/01/29 07:59:27;;;;;;;5.67;2.60;;;;;;;2.41;59.75;101720.09;1793537;79;25986;-59
2022/01/29 08:01:54;;;;;;;6.65;3.10;;;;;;;2.47;58.90;101726.97;1792711;79;25849;-59
2022/01/29 08:04:23;;;;;;;7.33;2.15;;;;;;;2.48;58.96;101725.56;1793683;80;25852;-59
2022/01/29 08:06:52;;;;;;;9.13;2.55;;;;;;;2.48;58.19;101733.53;1793465;80;27539;-60
2022/01/29 08:09:19;;;;;;;6.55;2.80;;;;;;;2.43;58.24;101735.96;1792401;80;25737;-60
2022/01/29 08:11:46;;;;;;;5.10;2.40;;;;;;;2.32;58.05;101735.06;1793081;80;25769;-60
2022/01/29 08:14:14;;;;;;;5.53;2.60;;;;;;;2.25;58.41;101742.38;1793668;80;25845;-60
2022/01/29 08:16:41;;;;;;;6.70;2.87;;;;;;;2.17;58.00;101730.75;1779250;79;25794;-60
2022/01/29 08:19:13;;;;;;;9.35;3.10;;;;;;;2.11;58.25;101735.42;1784108;80;27378;-60
2022/01/29 08:21:39;;;;;;;4.75;2.55;;;;;;;2.12;58.20;101744.64;1787121;80;25768;-60
2022/01/29 08:24:07;;;;;;;4.62;2.55;;;;;;;2.25;57.89;101733.56;1782418;80;26443;-59
2022/01/29 08:26:34;;;;;;;9.38;1.90;;;;;;;2.36;57.21;101732.70;1791923;80;25775;-60
2022/01/29 08:29:02;;;;;;;4.47;2.30;;;;;;;2.51;57.08;101732.54;1793677;80;25664;-61
2022/01/29 08:31:29;;;;;;;2.33;1.62;;;;;;;2.65;56.41;101740.84;1793715;80;28201;-60
2022/01/29 08:33:56;;;;;;;8.20;3.17;;;;;;;2.72;54.71;101737.48;1793581;80;25884;-60
2022/01/29 08:36:23;;;;;;;7.17;2.62;;;;;;;2.84;54.29;101733.91;1793553;80;25706;-61
2022/01/29 08:38:54;;;;;;;7.30;2.45;;;;;;;2.97;53.78;101745.31;1792629;80;26090;-60
2022/01/29 08:41:21;;;;;;;8.13;3.83;;;;;;;3.05;52.17;101766.27;1793348;80;26328;-59
2022/01/29 08:43:50;;;;;;;5.17;1.95;;;;;;;3.16;52.61;101739.23;1788064;79;28110;-59
2022/01/29 08:46:17;;;;;;;3.67;2.12;;;;;;;3.31;52.69;101748.84;1778740;80;25787;-59
2022/01/29 08:48:44;;;;;;;6.35;2.25;;;;;;;3.47;51.12;101754.34;1784210;80;25752;-60
2022/01/29 08:51:10;;;;;;;4.87;1.87;;;;;;;3.53;49.57;101742.13;1787113;80;26075;-60
2022/01/29 08:53:37;;;;;;;7.58;2.30;;;;;;;3.64;48.96;101750.48;1785713;79;25727;-60
2022/01/29 08:56:05;;;;;;;9.90;2.17;;;;;;;3.71;49.08;101741.33;1793237;79;27485;-59
2022/01/29 08:58:32;;;;;;;8.30;1.40;;;;;;;3.88;50.17;101746.36;1788506;80;25666;-60
2022/01/29 09:01:00;;;;;;;6.05;1.95;;;;;;;4.13;48.59;101734.59;1781124;79;25777;-60
2022/01/29 09:03:27;;;;;;;5.05;1.52;;;;;;;4.28;48.52;101737.02;1780807;79;25766;-60
2022/01/29 09:05:54;;;;;;;5.78;1.57;;;;;;;4.50;46.79;101738.20;1780660;79;26332;-60
2022/01/29 09:08:21;;;;;;;7.83;1.82;;;;;;;4.73;46.62;101739.76;1781003;80;28169;-61
2022/01/29 09:10:49;;;;;;;4.05;1.45;;;;;;;5.39;45.50;101742.25;1782890;80;25732;-60
2022/01/29 09:13:15;;;;;;;6.62;1.80;;;;;;;6.29;43.99;101730.03;1793604;80;25629;-60
2022/01/29 09:15:43;;;;;;;5.85;2.20;;;;;;;7.06;42.56;101731.00;1792775;80;25894;-58
2022/01/29 09:18:09;;;;;;;8.20;1.42;;;;;;;7.70;41.14;101737.97;1794037;80;25796;-59
2022/01/29 09:20:36;;;;;;;8.58;2.37;;;;;;;7.63;41.86;101737.47;1793340;80;27491;-60
2022/01/29 09:23:03;;;;;;;6.83;1.80;;;;;;;7.35;40.72;101735.97;1793374;79;25716;-60
2022/01/29 09:25:31;;;;;;;4.87;2.10;;;;;;;7.10;41.46;101736.58;1776050;80;25713;-60
2022/01/29 09:27:59;;;;;;;4.22;2.05;;;;;;;7.40;39.28;101731.67;1779318;80;26142;-60
2022/01/29 09:30:26;;;;;;;9.20;1.90;;;;;;;6.98;39.84;101742.63;1782733;80;25695;-60
2022/01/29 09:32:53;;;;;;;8.30;2.15;;;;;;;7.07;39.82;101746.59;1784813;80;27448;-60
2022/01/29 09:35:19;;;;;;;6.00;1.72;;;;;;;7.49;40.44;101734.30;1787872;80;25964;-59
2022/01/29 09:37:47;;;;;;;16.45;5.62;;;;;;;7.66;40.10;101733.28;1791657;80;25822;-59
2022/01/29 09:40:15;;;;;;;7.10;2.10;;;;;;;8.23;39.37;101725.73;1785413;79;27961;-59
2022/01/29 09:42:45;;;;;;;5.37;1.85;;;;;;;9.16;38.78;101724.23;1779284;79;25766;-59
2022/01/29 09:45:17;;;;;;;6.40;2.75;;;;;;;9.41;38.78;101723.43;1780282;80;27596;-60
2022/01/29 09:47:51;;;;;;;14.87;3.92;;;;;;;9.93;37.55;101731.51;1786687;78;25868;-60
2022/01/29 09:50:19;;;;;;;13.68;3.30;;;;;;;10.11;35.28;101729.32;1805586;79;25464;-60
2022/01/29 09:52:49;;;;;;;8.70;3.80;;;;;;;10.63;35.24;101726.06;1814220;78;26434;-61
2022/01/29 09:55:16;;;;;;;10.90;4.78;;;;;;;11.17;34.55;101724.72;1813629;78;25484;-59
2022/01/29 09:57:43;;;;;;;10.82;3.95;;;;;;;11.07;33.05;101721.87;1814208;78;27450;-60
2022/01/29 10:00:12;;;;;;;11.05;3.00;;;;;;;10.90;30.85;101735.25;1792834;79;25730;-59
2022/01/29 10:02:39;;;;;;;5.30;2.52;;;;;;;11.01;31.45;101737.63;1784090;80;25742;-59
2022/01/29 10:05:11;;;;;;;7.80;2.85;;;;;;;11.27;31.85;101718.16;1783872;80;25790;-60
2022/01/29 10:07:36;;;;;;;4.83;2.33;;;;;;;11.51;30.57;101730.23;1783895;80;25639;-60
2022/01/29 10:10:17;;;;;;;7.33;2.40;;;;;;;11.32;28.65;101721.34;1783509;80;27487;-60
2022/01/29 10:12:44;;;;;;;5.20;1.98;;;;;;;11.28;29.57;101720.73;1813906;79;25764;-59
2022/01/29 10:15:11;;;;;;;7.17;2.50;;;;;;;12.02;29.07;101695.25;1746926;81;25719;-61
2022/01/29 10:17:48;;;;;;;9.35;2.77;;;;;;;11.79;28.48;101737.99;1769182;80;26443;-58
2022/01/29 10:20:23;;;;;;;5.25;1.95;;;;;;;11.47;29.21;101713.08;1797156;79;25766;-58
2022/01/29 10:22:54;;;;;;;2.75;1.07;;;;;;;11.81;31.06;101713.97;1795684;79;27560;-60
2022/01/29 10:25:28;;;;;;;8.60;1.50;;;;;;;12.46;29.69;101722.33;1772042;79;25734;-60
2022/01/29 10:28:21;;;;;;;4.87;1.62;;;;;;;13.03;27.51;101718.59;1781480;79;25540;-59
2022/01/29 10:30:58;;;;;;;7.28;1.95;;;;;;;13.08;29.41;101723.98;1796994;79;26610;-59
2022/01/29 10:33:33;;;;;;;5.42;2.15;;;;;;;11.75;27.60;101723.90;1796141;79;25513;-59
2022/01/29 10:36:06;;;;;;;7.60;1.95;;;;;;;10.62;29.36;101721.65;1796022;79;26812;-59
2022/01/29 10:39:00;;;;;;;12.10;2.25;;;;;;;10.16;30.61;101725.34;1763405;79;25766;-59
2022/01/29 10:41:30;;;;;;;6.12;1.80;;;;;;;9.33;31.03;101729.31;1770353;79;25683;-59
2022/01/29 10:44:20;;;;;;;14.25;2.02;;;;;;;8.55;31.42;101724.16;1797232;79;25792;-59
2022/01/29 10:46:55;;;;;;;2.95;1.60;;;;;;;8.02;31.88;101734.64;1797094;79;25785;-60
2022/01/29 10:49:32;;;;;;;8.40;2.85;;;;;;;7.52;33.27;101724.25;1796915;79;27523;-59
2022/01/29 10:52:06;;;;;;;3.25;1.50;;;;;;;7.63;34.16;101722.75;1797402;79;25829;-59
2022/01/29 10:54:37;;;;;;;7.97;2.12;;;;;;;7.58;34.32;101724.83;1796833;79;25844;-60
2022/01/29 10:57:08;;;;;;;10.55;1.92;;;;;;;7.55;34.97;101729.05;1762365;81;26799;-59
2022/01/29 10:59:39;;;;;;;7.53;2.58;;;;;;;7.51;34.41;101719.85;1762686;79;25870;-59
2022/01/29 11:02:09;;;;;;;9.53;2.52;;;;;;;7.34;34.99;101710.17;1765467;80;27442;-59
2022/01/29 11:04:38;;;;;;;8.05;2.40;;;;;;;7.16;34.00;101722.83;1765617;81;25822;-60
2022/01/29 11:07:13;;;;;;;8.75;2.50;;;;;;;6.86;33.83;101723.66;1771432;79;25492;-59
2022/01/29 11:09:34;;;;;;;6.35;1.80;;;;;;;6.74;34.30;101721.70;1796025;79;26558;-60
2022/01/29 11:12:04;;;;;;;6.90;1.45;;;;;;;6.94;33.56;101714.34;1797365;79;25827;-59
2022/01/29 11:14:33;;;;;;;2.72;1.27;;;;;;;7.38;33.86;101712.65;1797150;79;27471;-59
2022/01/29 11:17:01;;;;;;;4.75;1.35;;;;;;;7.90;33.79;101697.39;1797386;79;25657;-61
2022/01/29 11:19:32;;;;;;;7.90;2.02;;;;;;;7.81;33.12;101705.55;1765086;79;39198;-61
2022/01/29 11:22:06;;;;;;;4.97;1.98;;;;;;;7.52;32.81;101705.52;1762377;80;25793;-58
2022/01/29 11:24:35;;;;;;;4.60;2.12;;;;;;;7.41;33.63;101703.11;1771959;79;32367;-58
2022/01/29 11:27:04;;;;;;;3.52;1.42;;;;;;;7.33;33.56;101709.79;1797330;79;27520;-59
2022/01/29 11:29:36;;;;;;;2.62;1.00;;;;;;;7.06;33.38;101701.57;1787904;79;25689;-61
2022/01/29 11:32:28;;;;;;;2.47;1.20;;;;;;;6.94;33.35;101699.14;1797508;78;25773;-59
2022/01/29 11:35:22;;;;;;;3.45;1.25;;;;;;;6.47;32.78;101697.38;1797259;78;25806;-59
2022/01/29 11:37:57;;;;;;;2.95;1.25;;;;;;;6.20;33.86;101697.98;1765686;81;26456;-59
2022/01/29 11:41:01;;;;;;;4.60;1.00;;;;;;;6.03;33.87;101700.27;1744842;81;27456;-59
2022/01/29 11:43:34;;;;;;;9.30;1.00;;;;;;;5.75;33.40;101697.72;1791270;78;25809;-60
2022/01/29 11:46:04;;;;;;;3.52;1.32;;;;;;;5.61;34.04;101701.97;1756210;81;25773;-60
2022/01/29 11:48:49;;;;;;;2.95;1.20;;;;;;;5.51;34.75;101707.42;1755949;81;25786;-60
2022/01/29 11:51:11;;;;;;;2.37;1.20;;;;;;;5.50;35.53;101708.36;1757854;80;25820;-60